Cowes, United Kingdom
Current Conditions -  °F | °C
As of 10:20 AM on Thursday 27 Nov 2014 (Local Time) from EGHI Reporting Station
Moderate Fog Moderate Fog  
Wind Chill: 45°   Ceiling: 400
Heat Index: 45°   Visibility: 0.18mi
Dew Point: 43°   Wind: 3mph
Humidity: 93%   Direction: 120°ESE
Pressure: 29.62"   Gusts: NA
Location:  50.76°N, 1.3°W
Report Text: EGHI 271020Z 12003KT 0300 R20/0900 FG SCT002 BKN004 07/06 Q1003
Loading
Personal Weather Stations






























Interactive Weather Map New forecast layout! Learn more

10-Day Weather Forecast

Advertisements
Track Severe Weather on mobile